CheckWX is a tool to help pilots better visualize weather data.  It is not intended as a substitute for an official pre-flight weather briefing.

12:22:29 UTC

KOXB METAR
Ocean City Municipal Airport
Ocean City, Maryland, USA
Current

29 mins ago

KOXB 221153Z AUTO 00000KT 10SM FEW055 SCT090 BKN120 06/03 A3031 RMK AO2 RAB1059E08 SLP262 P0000 60000 T00560028 10072 20050 53021
Observed
Feb-22 @ 11:53 UTC
Visibility
10 SM
Flight Rules
VFR
Cloud Levels
  • Few at 5,500' AGL
  • Scattered at 9,000' AGL
  • Broken at 12,000' AGL
Temperature
C / 43°F
Dewpoint
C / 37°F
Humidity
81%
Altimeter
30.31" Hg
Pressure
1026.2 hPa
Current Rain
0.01"
Previous

1 hour ago

KOXB 221053Z AUTO 01005KT 10SM OVC100 07/02 A3028 RMK AO2 RAE06 SLP254 P0000 T00670022
Observed
Feb-22 @ 10:53 UTC
Wind
  • 010° at 5 KTS
Visibility
10 SM
Flight Rules
VFR
Cloud Levels
  • Overcast at 10,000' AGL
Temperature
C / 45°F
Dewpoint
C / 36°F
Humidity
71%
Altimeter
30.28" Hg
Pressure
1025.4 hPa
Current Rain
0.01"
Previous

2 hours ago

KOXB 220953Z AUTO 34003KT 10SM -RA FEW060 OVC100 06/04 A3027 RMK AO2 RAB43 SLP248 P0000 T00610044
Observed
Feb-22 @ 09:53 UTC
Wind
  • 340° at 3 KTS
Visibility
10 SM
Flight Rules
VFR
Conditions
Light Rain
Cloud Levels
  • Few at 6,000' AGL
  • Overcast at 10,000' AGL
Temperature
C / 43°F
Dewpoint
C / 39°F
Humidity
87%
Altimeter
30.27" Hg
Pressure
1024.8 hPa
Current Rain
0.01"